Time;durP1;ratioP1;P1;durP2;ratioP2;P2;SDS_P1;SDS_P2;PMS_P1;PMS_P2;Temp;Humidity;BMP_temperature;BMP_pressure;BME280_temperature;BME280_humidity;BME280_pressure;Samples;Min_cycle;Max_cycle;Signal;HPM_P1;HPM_P2
2023/05/27 00:01:38;;;;;;;22.37;5.03;;;;;;;11.91;69.59;101804.00;5019268;57;1140500;-65
2023/05/27 00:06:43;;;;;;;16.33;4.87;;;;;;;11.79;70.01;101796.32;5019052;57;1140731;-70
2023/05/27 00:11:49;;;;;;;13.57;4.83;;;;;;;11.58;70.51;101802.94;5085812;56;1140686;-66
2023/05/27 00:16:54;;;;;;;21.53;5.10;;;;;;;11.58;71.22;101800.28;5102756;56;1140937;-66
2023/05/27 00:22:00;;;;;;;21.93;5.33;;;;;;;11.63;71.74;101799.03;5102581;56;1140783;-68
2023/05/27 00:27:07;;;;;;;18.60;4.70;;;;;;;11.54;71.18;101803.59;5109416;56;1140819;-66
2023/05/27 00:32:12;;;;;;;16.87;5.33;;;;;;;11.46;71.34;101809.81;5137776;55;1141007;-65
2023/05/27 00:37:18;;;;;;;17.27;4.90;;;;;;;11.34;71.60;101805.26;5102892;56;1140667;-66
2023/05/27 00:42:24;;;;;;;20.48;6.70;;;;;;;11.31;72.11;101809.88;5102657;56;1140683;-67
2023/05/27 00:47:33;;;;;;;24.87;9.00;;;;;;;11.41;72.77;101813.23;5122604;56;1140704;-67
2023/05/27 00:52:39;;;;;;;17.43;5.83;;;;;;;11.35;72.11;101814.91;5056550;56;1141071;-67
2023/05/27 00:57:45;;;;;;;22.50;7.00;;;;;;;11.24;72.43;101815.56;5014477;57;1140973;-70
2023/05/27 01:02:52;;;;;;;19.80;6.10;;;;;;;11.18;72.85;101823.86;5033878;57;1140613;-66
2023/05/27 01:08:11;;;;;;;22.53;5.60;;;;;;;11.17;72.60;101829.25;5065513;56;1140936;-67
2023/05/27 01:13:49;;;;;;;19.05;5.65;;;;;;;11.13;72.87;101833.04;5104319;56;1140911;-67
2023/05/27 01:18:53;;;;;;;15.63;5.53;;;;;;;11.09;72.99;101826.22;5117227;56;1140941;-67
2023/05/27 01:24:05;;;;;;;17.87;5.67;;;;;;;11.05;72.82;101820.23;5138487;56;1141041;-67
2023/05/27 01:29:10;;;;;;;16.77;5.40;;;;;;;10.86;73.25;101829.72;5119357;56;1140798;-67
2023/05/27 01:34:22;;;;;;;18.42;5.62;;;;;;;10.73;73.15;101827.87;5120347;56;1140711;-64
2023/05/27 01:39:29;;;;;;;26.83;6.50;;;;;;;10.43;73.55;101824.70;5139931;56;1140877;-68
2023/05/27 01:44:35;;;;;;;25.63;7.17;;;;;;;10.49;75.19;101823.05;5120128;56;1140875;-67
2023/05/27 01:49:40;;;;;;;16.63;5.37;;;;;;;10.73;75.62;101819.46;5119900;56;1140715;-65
2023/05/27 01:54:46;;;;;;;15.80;5.60;;;;;;;10.73;74.73;101821.25;5059060;56;1140729;-70
2023/05/27 01:59:52;;;;;;;26.33;7.23;;;;;;;10.72;74.67;101813.78;5034482;57;1150047;-68
2023/05/27 02:04:57;;;;;;;18.53;7.20;;;;;;;10.84;75.09;101817.54;5097061;56;1140681;-67
2023/05/27 02:10:03;;;;;;;23.90;7.57;;;;;;;10.85;74.56;101810.80;5139839;56;1140695;-65
2023/05/27 02:15:10;;;;;;;21.25;7.30;;;;;;;10.87;74.58;101812.05;5119020;56;1140841;-66
2023/05/27 02:20:15;;;;;;;38.03;9.00;;;;;;;10.84;74.50;101813.10;5118371;56;1189571;-68
2023/05/27 02:25:21;;;;;;;22.67;8.25;;;;;;;10.90;74.59;101818.48;5139035;56;1140755;-68
2023/05/27 02:30:27;;;;;;;25.40;8.97;;;;;;;10.90;74.59;101818.48;5097899;56;1141090;-65
2023/05/27 02:35:32;;;;;;;17.03;7.07;;;;;;;10.86;74.38;101812.52;5118641;56;1140906;-69
2023/05/27 02:40:39;;;;;;;19.20;5.62;;;;;;;10.46;72.98;101819.72;5138808;56;1140639;-67
2023/05/27 02:45:45;;;;;;;18.07;7.70;;;;;;;10.06;73.13;101817.09;5116766;56;1179726;-65
2023/05/27 02:50:50;;;;;;;21.27;7.80;;;;;;;10.07;75.06;101822.77;5082772;56;1241369;-69
2023/05/27 02:55:56;;;;;;;17.97;5.77;;;;;;;9.63;74.86;101827.77;5054480;56;1140763;-65
2023/05/27 03:01:02;;;;;;;18.77;5.83;;;;;;;9.63;74.86;101827.77;5094365;56;1136716;-68
2023/05/27 03:06:08;;;;;;;17.27;5.93;;;;;;;9.46;76.05;101840.09;5117060;56;1136845;-67
2023/05/27 03:11:14;;;;;;;23.43;6.20;;;;;;;9.49;76.37;101837.27;5119033;56;1138846;-71
2023/05/27 03:16:20;;;;;;;23.22;5.87;;;;;;;9.53;76.85;101836.65;5137293;56;1245152;-65
2023/05/27 03:21:25;;;;;;;24.47;6.83;;;;;;;9.55;77.33;101846.67;5116816;55;1246391;-66
2023/05/27 03:26:31;;;;;;;22.53;7.40;;;;;;;9.64;78.28;101838.72;5116527;55;1242390;-67
2023/05/27 03:31:38;;;;;;;38.60;8.40;;;;;;;9.84;79.34;101846.45;5139405;56;1139291;-67
2023/05/27 03:36:46;;;;;;;31.00;7.67;;;;;;;10.01;79.04;101844.23;5118686;56;1174885;-69
2023/05/27 03:41:52;;;;;;;20.83;7.33;;;;;;;9.94;78.03;101845.48;5117493;56;1236217;-68
2023/05/27 03:46:58;;;;;;;21.73;7.20;;;;;;;9.58;78.11;101856.23;5136531;56;1249867;-67
2023/05/27 03:52:04;;;;;;;22.13;7.20;;;;;;;9.29;79.05;101859.91;5082240;56;1253037;-68
2023/05/27 03:57:09;;;;;;;21.53;8.03;;;;;;;9.15;80.00;101863.70;5088657;56;1254747;-64
2023/05/27 04:02:15;;;;;;;22.45;8.03;;;;;;;9.05;81.94;101863.30;5118536;56;1242610;-69
2023/05/27 04:07:26;;;;;;;25.85;8.43;;;;;;;8.96;83.68;101867.72;5138132;56;1255865;-67
2023/05/27 04:12:28;;;;;;;26.82;8.50;;;;;;;8.98;85.39;101872.93;5116348;56;1255681;-70
2023/05/27 04:17:33;;;;;;;30.53;9.17;;;;;;;9.00;86.46;101878.52;5105880;56;1256069;-69
2023/05/27 04:22:39;;;;;;;21.87;8.07;;;;;;;8.98;88.23;101886.12;5092098;57;1138865;-67
2023/05/27 04:27:46;;;;;;;24.80;8.50;;;;;;;8.96;90.81;101884.87;5092086;56;1138788;-66
2023/05/27 04:32:52;;;;;;;16.20;6.10;;;;;;;9.02;92.53;101886.34;5017946;57;1138738;-69
2023/05/27 04:38:01;;;;;;;18.57;6.47;;;;;;;9.07;94.50;101891.79;5039201;57;1138807;-68
2023/05/27 04:43:12;;;;;;;19.02;7.28;;;;;;;9.12;95.52;101887.15;5019573;57;1138663;-68
2023/05/27 04:48:16;;;;;;;17.73;7.28;;;;;;;9.19;96.64;101898.23;5018849;57;1138772;-66
2023/05/27 04:53:24;;;;;;;21.80;7.10;;;;;;;9.28;97.48;101895.63;5039303;56;1138844;-68
2023/05/27 04:58:30;;;;;;;21.57;6.60;;;;;;;9.41;99.09;101890.95;5093704;56;1181243;-67
2023/05/27 05:03:50;;;;;;;18.27;5.55;;;;;;;9.56;99.57;101893.75;5103520;56;1138730;-69
2023/05/27 05:08:47;;;;;;;19.43;6.03;;;;;;;9.74;100.00;101895.44;5120793;56;1138767;-67
2023/05/27 05:13:52;;;;;;;19.30;5.50;;;;;;;10.05;100.00;101893.36;5018048;57;1218883;-66
2023/05/27 05:18:58;;;;;;;21.87;5.27;;;;;;;10.45;100.00;101890.74;5020007;56;1142798;-66
2023/05/27 05:24:06;;;;;;;22.93;4.80;;;;;;;10.79;99.57;101886.60;5044877;56;1142969;-65
2023/05/27 05:29:12;;;;;;;26.00;5.60;;;;;;;11.09;99.15;101877.84;5103359;56;1140913;-67
2023/05/27 05:34:19;;;;;;;20.20;4.60;;;;;;;11.48;99.29;101885.22;5103391;56;1144338;-67
2023/05/27 05:39:25;;;;;;;19.95;5.00;;;;;;;11.80;97.81;101891.27;5123221;56;1141029;-67
2023/05/27 05:44:34;;;;;;;20.17;5.40;;;;;;;12.09;97.30;101885.50;5103123;56;1140822;-70
2023/05/27 05:49:40;;;;;;;32.70;5.80;;;;;;;12.40;96.92;101889.73;5102903;56;1140846;-67
2023/05/27 05:54:46;;;;;;;25.63;5.90;;;;;;;12.56;95.10;101886.48;5119691;56;1140913;-69
2023/05/27 05:59:52;;;;;;;29.87;5.50;;;;;;;12.75;94.24;101892.80;5102740;56;1140901;-70
2023/05/27 06:04:58;;;;;;;18.07;4.70;;;;;;;13.01;94.99;101899.91;5103012;56;1141016;-70
2023/05/27 06:10:04;;;;;;;16.27;5.93;;;;;;;13.33;93.26;101906.62;5123198;56;1140733;-66
2023/05/27 06:15:12;;;;;;;20.67;5.67;;;;;;;13.56;89.47;101913.06;5102491;56;1140834;-68
2023/05/27 06:20:19;;;;;;;16.50;4.60;;;;;;;13.75;90.08;101910.48;5102979;56;1140840;-66
2023/05/27 06:25:25;;;;;;;29.18;5.08;;;;;;;13.83;85.33;101911.64;5122948;56;1141046;-68
2023/05/27 06:30:33;;;;;;;22.73;5.07;;;;;;;14.02;85.79;101917.39;5053410;56;1140770;-67
2023/05/27 06:35:40;;;;;;;13.27;4.43;;;;;;;14.19;83.75;101918.02;5019866;57;1140904;-65
2023/05/27 06:40:46;;;;;;;22.40;4.17;;;;;;;14.38;79.36;101927.71;5037609;57;1140962;-68
2023/05/27 06:45:51;;;;;;;18.60;4.33;;;;;;;14.50;79.93;101936.69;5075268;56;1140844;-67
2023/05/27 06:51:11;;;;;;;18.03;3.63;;;;;;;14.61;80.13;101931.44;5083189;56;1141105;-68
2023/05/27 06:56:17;;;;;;;19.92;3.72;;;;;;;14.79;77.13;101927.45;5019866;57;1140812;-66
2023/05/27 07:01:40;;;;;;;11.75;3.37;;;;;;;14.98;75.96;101927.78;5039622;57;1141248;-69
2023/05/27 07:06:47;;;;;;;13.72;3.60;;;;;;;15.31;76.83;101915.58;5019596;57;1140855;-68
2023/05/27 07:11:53;;;;;;;14.40;3.90;;;;;;;15.51;73.13;101911.41;5019524;57;1140943;-68
2023/05/27 07:17:07;;;;;;;20.32;3.90;;;;;;;15.69;73.25;101900.22;5013227;57;1141003;-69
2023/05/27 07:22:13;;;;;;;14.97;3.63;;;;;;;15.92;70.74;101906.91;5023340;57;1140803;-68
2023/05/27 07:27:18;;;;;;;12.23;3.70;;;;;;;16.11;70.59;101908.50;5093011;56;1140843;-66
2023/05/27 07:32:26;;;;;;;8.97;2.87;;;;;;;16.29;65.87;101904.39;5117218;56;1140817;-68
2023/05/27 07:37:32;;;;;;;10.17;1.80;;;;;;;16.38;66.49;101900.12;5138965;56;1138904;-70
2023/05/27 07:42:38;;;;;;;7.27;1.97;;;;;;;16.54;65.66;101894.76;5118456;56;1140813;-65
2023/05/27 07:47:45;;;;;;;12.33;3.27;;;;;;;16.74;63.65;101893.66;5119641;56;1138776;-69
2023/05/27 07:52:51;;;;;;;7.57;2.30;;;;;;;16.96;62.92;101893.58;5091569;56;1140829;-68
2023/05/27 07:58:02;;;;;;;6.33;2.20;;;;;;;17.20;60.57;101884.87;5032982;57;1138893;-68
2023/05/27 08:03:09;;;;;;;12.20;1.90;;;;;;;17.31;55.44;101880.44;5033565;57;1138847;-70
2023/05/27 08:08:17;;;;;;;15.13;2.47;;;;;;;17.33;58.18;101875.33;5030865;57;1141096;-64
2023/05/27 08:13:33;;;;;;;10.63;2.07;;;;;;;17.58;57.22;101873.59;5031034;57;1140888;-67
2023/05/27 08:18:43;;;;;;;3.80;1.50;;;;;;;17.70;55.71;101874.42;5014720;57;1140774;-69
2023/05/27 08:23:53;;;;;;;9.77;1.90;;;;;;;17.74;51.57;101874.48;5036057;56;1138718;-67
2023/05/27 08:29:05;;;;;;;6.37;1.93;;;;;;;17.86;51.12;101874.79;5129376;56;1138769;-68
2023/05/27 08:34:15;;;;;;;6.50;1.93;;;;;;;17.81;50.46;101868.13;5091584;55;1138737;-68
2023/05/27 08:39:20;;;;;;;12.98;2.10;;;;;;;17.95;48.57;101867.78;5140899;56;1138781;-68
2023/05/27 08:44:27;;;;;;;10.98;2.42;;;;;;;18.06;48.61;101858.80;5151049;56;1140944;-66
2023/05/27 08:49:37;;;;;;;5.97;1.82;;;;;;;18.31;52.11;101850.80;5118721;56;1140818;-67
2023/05/27 08:54:43;;;;;;;7.93;2.17;;;;;;;18.39;49.79;101842.41;5059007;56;1138522;-69
2023/05/27 08:59:49;;;;;;;8.43;2.33;;;;;;;18.42;48.33;101849.34;5075101;57;1138913;-66
2023/05/27 09:04:55;;;;;;;7.60;2.33;;;;;;;18.53;48.93;101851.40;5053565;57;1138648;-66
2023/05/27 09:10:00;;;;;;;9.80;1.97;;;;;;;18.47;47.14;101853.31;5071222;56;1138561;-66
2023/05/27 09:15:07;;;;;;;5.90;1.47;;;;;;;18.45;49.49;101852.59;5139943;56;1138710;-66
2023/05/27 09:20:13;;;;;;;7.50;2.45;;;;;;;18.79;49.89;101853.61;5109747;56;1139164;-69
2023/05/27 09:25:19;;;;;;;3.60;1.47;;;;;;;19.09;49.41;101845.42;5156341;55;1138908;-66
2023/05/27 09:30:27;;;;;;;3.77;1.82;;;;;;;19.28;48.72;101848.06;5130825;56;1138724;-67
2023/05/27 09:35:34;;;;;;;12.93;2.47;;;;;;;19.46;45.38;101848.68;5102925;56;1138647;-67
2023/05/27 09:40:41;;;;;;;4.42;1.90;;;;;;;19.56;46.27;101849.52;5102700;56;1140744;-70
2023/05/27 09:45:47;;;;;;;7.40;1.60;;;;;;;19.64;42.96;101848.32;5122932;56;1138712;-67
2023/05/27 09:50:53;;;;;;;4.80;1.27;;;;;;;19.73;44.80;101856.83;5088974;56;1138757;-70
2023/05/27 09:55:59;;;;;;;10.35;1.80;;;;;;;19.91;43.55;101844.83;5019561;57;1138671;-67
2023/05/27 10:01:05;;;;;;;4.12;1.65;;;;;;;19.90;40.98;101841.80;5039149;57;1140754;-65
2023/05/27 10:06:16;;;;;;;12.13;2.17;;;;;;;19.77;39.18;101847.50;4971264;57;1138767;-66
2023/05/27 10:11:21;;;;;;;6.22;2.50;;;;;;;19.70;39.74;101841.53;5062732;56;1141064;-68
2023/05/27 10:16:29;;;;;;;2.37;1.57;;;;;;;19.92;41.33;101849.21;5123113;56;1138756;-71
2023/05/27 10:21:35;;;;;;;5.17;1.55;;;;;;;19.98;42.02;101845.95;5103154;56;1138615;-65
2023/05/27 10:26:47;;;;;;;7.10;1.62;;;;;;;20.30;44.31;101841.48;5005768;57;1138680;-69
2023/05/27 10:31:53;;;;;;;3.60;1.73;;;;;;;20.49;41.64;101837.34;5112438;56;1138559;-68
2023/05/27 10:37:02;;;;;;;17.10;2.00;;;;;;;20.34;42.41;101832.95;5103274;56;1138737;-70
2023/05/27 10:42:08;;;;;;;6.50;2.17;;;;;;;20.55;43.53;101835.91;5102921;56;1140868;-68
2023/05/27 10:47:15;;;;;;;3.43;1.60;;;;;;;20.60;41.61;101837.16;5032885;56;1138663;-67
2023/05/27 10:52:25;;;;;;;6.00;1.70;;;;;;;20.66;40.17;101823.58;4900531;58;1138866;-67
2023/05/27 10:57:32;;;;;;;6.03;1.43;;;;;;;20.74;38.74;101815.61;4855075;59;1138808;-69
2023/05/27 11:02:41;;;;;;;16.25;2.47;;;;;;;20.81;37.76;101808.60;4937715;58;1138450;-67
2023/05/27 11:07:46;;;;;;;3.85;1.82;;;;;;;20.95;38.30;101812.09;4953119;58;1140806;-70
2023/05/27 11:12:52;;;;;;;5.60;3.95;;;;;;;20.96;35.72;101802.17;5004194;57;1138750;-68
2023/05/27 11:18:03;;;;;;;8.20;2.15;;;;;;;20.83;36.46;101801.73;4920124;58;1138732;-68
2023/05/27 11:23:09;;;;;;;62.40;22.77;;;;;;;20.84;36.53;101794.86;5017694;57;1138702;-68
2023/05/27 11:28:17;;;;;;;162.03;89.72;;;;;;;20.86;35.77;101786.63;5040452;57;1143125;-66
2023/05/27 11:33:35;;;;;;;29.75;14.07;;;;;;;20.95;35.20;101794.61;5017436;57;1145312;-72
2023/05/27 11:38:56;;;;;;;9.33;2.58;;;;;;;21.06;35.58;101791.69;5017872;57;1143267;-68
2023/05/27 11:44:05;;;;;;;3.60;2.12;;;;;;;21.16;36.35;101782.67;4970986;57;1138776;-67
2023/05/27 11:49:16;;;;;;;3.70;1.80;;;;;;;21.14;35.12;101771.22;4937700;57;1138926;-67
2023/05/27 11:54:35;;;;;;;5.57;2.03;;;;;;;21.27;37.65;101770.33;4937401;58;1138755;-69
2023/05/27 11:59:38;;;;;;;5.03;2.40;;;;;;;21.34;34.33;101769.55;4956278;58;1138702;-69
2023/05/27 12:04:44;;;;;;;22.98;17.73;;;;;;;21.48;37.10;101763.23;4937380;58;1138831;-67
2023/05/27 12:09:50;;;;;;;3.15;2.08;;;;;;;21.66;37.52;101755.42;4952352;57;1142885;-69
2023/05/27 12:14:55;;;;;;;10.45;1.87;;;;;;;21.89;36.96;101748.09;5036753;57;1139185;-67
2023/05/27 12:20:01;;;;;;;4.50;1.65;;;;;;;22.04;37.77;101746.00;5018118;57;1140906;-68
2023/05/27 12:25:07;;;;;;;9.73;2.58;;;;;;;22.26;35.87;101742.36;4959196;57;1138893;-69
2023/05/27 12:30:13;;;;;;;3.95;1.50;;;;;;;22.30;34.18;101736.48;5017962;57;1138975;-66
2023/05/27 12:35:19;;;;;;;7.05;2.40;;;;;;;22.27;34.57;101737.31;5037919;57;1138807;-66
2023/05/27 12:40:26;;;;;;;3.45;1.55;;;;;;;22.18;34.79;101733.73;5018128;57;1138618;-70
2023/05/27 12:45:32;;;;;;;11.73;2.10;;;;;;;22.22;35.88;101731.05;4972748;57;1138621;-68
2023/05/27 12:50:38;;;;;;;5.22;1.52;;;;;;;22.39;34.68;101720.64;4966227;57;1140922;-68
2023/05/27 12:55:45;;;;;;;4.37;2.10;;;;;;;22.54;36.00;101709.19;5017990;57;1138837;-70
2023/05/27 13:00:51;;;;;;;10.30;3.02;;;;;;;22.61;33.93;101705.64;5017746;57;1138637;-66
2023/05/27 13:05:57;;;;;;;9.38;1.80;;;;;;;22.62;32.64;101699.23;5037434;57;1140893;-69
2023/05/27 13:11:02;;;;;;;3.47;2.05;;;;;;;22.39;32.02;101695.54;4981508;57;1138782;-70
2023/05/27 13:16:09;;;;;;;4.72;2.55;;;;;;;22.36;32.60;101698.06;4937673;58;1138810;-68
2023/05/27 13:21:15;;;;;;;21.48;2.45;;;;;;;22.53;33.56;101693.52;5017925;57;1138712;-70
2023/05/27 13:26:20;;;;;;;2.08;1.10;;;;;;;22.72;33.54;101689.64;5038252;57;1140910;-67
2023/05/27 13:31:26;;;;;;;20.65;2.25;;;;;;;22.90;33.15;101677.36;5019108;57;1138894;-69
2023/05/27 13:36:32;;;;;;;4.92;1.37;;;;;;;22.94;33.55;101679.52;5018685;57;1141039;-67
2023/05/27 13:41:37;;;;;;;7.67;2.02;;;;;;;23.12;32.36;101667.17;5038567;57;1138669;-69
2023/05/27 13:46:43;;;;;;;5.70;1.12;;;;;;;23.02;29.64;101677.33;5018546;57;1138860;-67
2023/05/27 13:51:49;;;;;;;1.25;1.07;;;;;;;22.82;28.50;101673.30;4990343;57;1138783;-69
2023/05/27 13:56:55;;;;;;;8.55;1.42;;;;;;;22.66;29.02;101662.84;4956278;58;1138815;-69
2023/05/27 14:02:05;;;;;;;16.25;1.90;;;;;;;22.59;30.28;101659.15;4938090;58;1138806;-66
2023/05/27 14:07:09;;;;;;;7.78;1.35;;;;;;;22.76;31.85;101654.08;4937402;57;1140856;-66
2023/05/27 14:12:14;;;;;;;1.77;1.37;;;;;;;22.81;29.93;101646.83;4938093;57;1138936;-68
2023/05/27 14:17:20;;;;;;;4.70;2.15;;;;;;;22.79;28.46;101644.30;5034433;57;1138788;-70
2023/05/27 14:22:28;;;;;;;5.12;1.50;;;;;;;22.61;28.40;101636.87;5018717;57;1138851;-66
2023/05/27 14:27:34;;;;;;;3.00;1.47;;;;;;;22.57;29.41;101630.16;5016843;57;1138598;-67
2023/05/27 14:32:40;;;;;;;2.60;1.47;;;;;;;22.70;29.81;101636.38;5037221;57;1138782;-67
2023/05/27 14:37:46;;;;;;;3.20;1.45;;;;;;;22.71;30.55;101634.86;5022367;57;1138828;-70
2023/05/27 14:42:51;;;;;;;7.28;1.50;;;;;;;22.79;29.39;101629.97;5129879;56;1138811;-67
2023/05/27 14:47:57;;;;;;;1.87;1.50;;;;;;;22.82;29.44;101626.09;5158329;56;1139142;-70
2023/05/27 14:53:02;;;;;;;3.92;1.37;;;;;;;22.86;30.39;101619.35;5087248;56;1138900;-69
2023/05/27 14:58:08;;;;;;;7.72;3.05;;;;;;;22.99;31.42;101612.39;5053509;56;1138575;-66
2023/05/27 15:03:13;;;;;;;7.44;5.24;;;;;;;23.12;29.96;101606.45;5052977;56;1138627;-66
2023/05/27 15:08:19;;;;;;;9.18;3.92;;;;;;;22.98;28.36;101593.68;5072207;57;1138751;-68
2023/05/27 15:13:26;;;;;;;11.60;4.80;;;;;;;22.87;30.93;101594.06;5131543;56;1138721;-70
2023/05/27 15:18:31;;;;;;;3.67;1.52;;;;;;;22.82;29.04;101595.92;5137782;55;1140933;-69
2023/05/27 15:23:37;;;;;;;10.48;2.15;;;;;;;22.70;29.28;101594.06;5156342;56;1138702;-69
2023/05/27 15:28:42;;;;;;;2.77;1.65;;;;;;;22.66;29.29;101590.02;5137723;56;1140722;-69
2023/05/27 15:33:50;;;;;;;3.12;1.45;;;;;;;22.66;30.23;101585.14;5137958;56;1138780;-68
2023/05/27 15:38:55;;;;;;;9.28;1.37;;;;;;;22.59;30.49;101578.25;5156968;55;1138965;-70
2023/05/27 15:44:01;;;;;;;10.45;2.08;;;;;;;22.58;30.56;101579.27;5127006;55;1138897;-69
2023/05/27 15:49:07;;;;;;;5.00;1.82;;;;;;;22.54;29.49;101577.08;5126697;55;1141155;-68
2023/05/27 15:54:13;;;;;;;5.25;2.40;;;;;;;22.41;29.04;101569.52;5127140;56;1138903;-66
2023/05/27 15:59:18;;;;;;;6.10;2.10;;;;;;;22.34;29.01;101573.38;5147174;56;1138689;-71
2023/05/27 16:04:24;;;;;;;11.40;1.52;;;;;;;22.32;29.39;101561.92;5075467;56;1138599;-65
2023/05/27 16:09:30;;;;;;;12.50;1.63;;;;;;;22.34;29.97;101561.26;5104705;56;1141160;-69
2023/05/27 16:14:35;;;;;;;7.20;1.40;;;;;;;22.37;29.35;101558.73;5061065;56;1140756;-69
2023/05/27 16:19:41;;;;;;;12.73;2.10;;;;;;;22.31;29.53;101552.16;5042479;56;1138746;-68
2023/05/27 16:24:47;;;;;;;4.08;2.60;;;;;;;22.29;29.22;101546.63;5059394;56;1140937;-66
2023/05/27 16:29:53;;;;;;;4.97;2.05;;;;;;;22.20;29.27;101540.89;5146820;56;1138774;-70
2023/05/27 16:34:59;;;;;;;4.58;2.10;;;;;;;22.14;29.11;101528.96;5126914;56;1138670;-67
2023/05/27 16:40:05;;;;;;;10.00;2.72;;;;;;;22.10;28.75;101525.75;5126892;56;1138804;-65
2023/05/27 16:45:11;;;;;;;6.15;1.52;;;;;;;22.11;29.15;101531.98;5137134;56;1140958;-68
2023/05/27 16:50:17;;;;;;;8.58;1.47;;;;;;;22.11;29.08;101523.91;5153937;56;1138892;-69
2023/05/27 16:55:22;;;;;;;5.47;2.10;;;;;;;21.98;28.75;101528.94;5032480;57;1138742;-68
2023/05/27 17:00:28;;;;;;;4.10;1.43;;;;;;;21.95;29.57;101527.92;5052890;57;1139150;-71
2023/05/27 17:05:35;;;;;;;4.60;1.92;;;;;;;21.81;29.04;101521.35;5146252;56;1138806;-68
2023/05/27 17:10:41;;;;;;;7.85;1.82;;;;;;;21.75;30.09;101516.13;5106448;56;1138674;-65
2023/05/27 17:15:47;;;;;;;13.90;2.45;;;;;;;21.55;29.50;101515.25;5054097;56;1138561;-66
2023/05/27 17:20:52;;;;;;;11.53;1.50;;;;;;;21.41;30.11;101516.23;5073520;56;1140923;-65
2023/05/27 17:25:58;;;;;;;9.55;1.62;;;;;;;21.31;30.00;101513.36;5091049;56;1140939;-68
2023/05/27 17:31:03;;;;;;;7.58;1.60;;;;;;;21.13;29.54;101513.45;5132161;56;1138861;-68
2023/05/27 17:36:10;;;;;;;9.14;2.02;;;;;;;21.04;30.27;101513.94;5140971;56;1138861;-67
2023/05/27 17:41:16;;;;;;;15.00;3.87;;;;;;;20.96;30.16;101513.05;5148537;56;1138880;-66
2023/05/27 17:46:22;;;;;;;13.20;4.62;;;;;;;20.86;30.71;101515.88;5137772;56;1140819;-67
2023/05/27 17:51:28;;;;;;;26.42;5.00;;;;;;;20.77;31.24;101509.29;5121646;56;1140985;-69
2023/05/27 17:56:34;;;;;;;25.40;5.58;;;;;;;20.73;31.68;101512.80;5147443;56;1140939;-67
2023/05/27 18:01:40;;;;;;;23.10;5.65;;;;;;;20.74;32.30;101512.30;5126994;56;1140960;-66
2023/05/27 18:06:45;;;;;;;11.00;5.65;;;;;;;20.68;32.52;101515.95;5126328;56;1140707;-69
2023/05/27 18:11:51;;;;;;;21.12;3.37;;;;;;;20.58;32.94;101500.45;5095342;56;1140829;-65
2023/05/27 18:16:56;;;;;;;15.00;4.70;;;;;;;20.49;33.57;101505.43;5043089;56;1140698;-70
2023/05/27 18:22:02;;;;;;;17.98;4.60;;;;;;;20.29;33.72;101499.42;5042862;56;1140840;-68
2023/05/27 18:27:07;;;;;;;29.90;4.20;;;;;;;20.20;34.15;101491.45;5119599;56;1140847;-66
2023/05/27 18:32:13;;;;;;;13.48;3.12;;;;;;;20.11;34.68;101506.68;5127212;56;1140820;-70
2023/05/27 18:37:19;;;;;;;12.53;2.27;;;;;;;19.97;34.67;101504.56;5127323;56;1140797;-69
2023/05/27 18:42:24;;;;;;;21.65;5.05;;;;;;;19.82;35.41;101500.24;5146050;56;1140868;-68
2023/05/27 18:47:30;;;;;;;25.95;4.35;;;;;;;19.79;35.63;101499.20;5133181;56;1141024;-67
2023/05/27 18:52:35;;;;;;;59.83;14.98;;;;;;;19.85;35.93;101507.15;5091967;56;1140969;-66
2023/05/27 18:57:41;;;;;;;73.13;18.13;;;;;;;19.63;39.90;101500.41;5132374;56;1142994;-68
2023/05/27 19:02:46;;;;;;;61.53;7.67;;;;;;;19.44;38.79;101495.99;5082755;56;1143146;-69
2023/05/27 19:07:52;;;;;;;55.63;9.73;;;;;;;19.37;39.18;101504.32;5106132;56;1140702;-69
2023/05/27 19:12:59;;;;;;;35.68;8.78;;;;;;;19.31;40.21;101504.91;5062795;56;1140883;-70
2023/05/27 19:18:04;;;;;;;25.27;6.35;;;;;;;19.26;40.25;101501.83;5031592;57;1140696;-65
2023/05/27 19:23:10;;;;;;;27.50;7.12;;;;;;;19.12;40.31;101503.19;5079869;56;1140984;-65
2023/05/27 19:28:16;;;;;;;22.55;6.08;;;;;;;18.94;40.59;101503.15;5115630;56;1140874;-69
2023/05/27 19:33:22;;;;;;;24.02;7.78;;;;;;;18.83;41.61;101503.35;5135456;56;1140822;-67
2023/05/27 19:38:27;;;;;;;22.85;6.33;;;;;;;18.72;42.18;101507.58;5115694;56;1140817;-69
2023/05/27 19:43:33;;;;;;;13.93;8.03;;;;;;;18.58;42.46;101508.91;5115656;56;1140927;-69
2023/05/27 19:48:39;;;;;;;27.90;14.10;;;;;;;18.34;43.35;101513.86;5135586;56;1141015;-66
2023/05/27 19:53:45;;;;;;;24.75;9.43;;;;;;;18.18;44.29;101512.31;5114659;56;1142727;-67
2023/05/27 19:58:50;;;;;;;22.07;7.80;;;;;;;18.11;44.72;101509.84;5115332;56;1140954;-64
2023/05/27 20:03:59;;;;;;;19.73;8.38;;;;;;;17.97;45.66;101504.44;5135227;56;1141149;-70
2023/05/27 20:09:05;;;;;;;22.02;8.80;;;;;;;17.81;46.25;101509.03;5115283;56;1140720;-71
2023/05/27 20:14:11;;;;;;;19.50;7.55;;;;;;;17.66;46.89;101505.09;5115372;56;1140732;-71
2023/05/27 20:19:16;;;;;;;20.77;6.40;;;;;;;17.61;47.64;101511.31;5069256;56;1140992;-70
2023/05/27 20:24:22;;;;;;;22.35;7.37;;;;;;;17.46;48.21;101501.52;5061758;56;1140862;-69
2023/05/27 20:29:27;;;;;;;29.43;7.50;;;;;;;17.28;48.57;101497.83;5113809;56;1141196;-67
2023/05/27 20:34:33;;;;;;;38.55;9.18;;;;;;;17.21;49.02;101500.72;5114009;56;1141062;-67
2023/05/27 20:39:39;;;;;;;29.63;6.62;;;;;;;17.13;49.41;101501.40;5135546;56;1141265;-68
2023/05/27 20:44:45;;;;;;;54.10;7.27;;;;;;;16.99;49.84;101510.30;5114822;56;1140701;-67
2023/05/27 20:49:50;;;;;;;24.10;6.57;;;;;;;16.71;50.05;101509.22;5124329;56;1140795;-71
2023/05/27 20:54:56;;;;;;;16.57;6.23;;;;;;;16.42;50.43;101505.05;5157800;56;1140763;-68
2023/05/27 21:00:01;;;;;;;20.03;4.83;;;;;;;16.21;50.86;101505.55;5137663;56;1140760;-66
2023/05/27 21:05:08;;;;;;;19.80;4.17;;;;;;;16.01;51.10;101506.78;5137923;56;1140854;-71
2023/05/27 21:10:14;;;;;;;29.23;5.37;;;;;;;15.73;51.35;101502.08;5137993;56;1141311;-65
2023/05/27 21:15:20;;;;;;;39.83;5.80;;;;;;;15.56;51.87;101504.81;5157853;56;1140939;-70
2023/05/27 21:20:26;;;;;;;47.40;5.80;;;;;;;15.60;52.58;101500.89;5142422;56;1140855;-71
2023/05/27 21:25:31;;;;;;;23.93;4.30;;;;;;;15.61;52.77;101504.41;5122334;56;1140819;-68
2023/05/27 21:30:37;;;;;;;20.27;4.65;;;;;;;15.64;52.97;101504.16;5158109;56;1140835;-70
2023/05/27 21:35:42;;;;;;;37.00;6.45;;;;;;;15.64;53.38;101509.00;5137024;56;1140963;-69
2023/05/27 21:40:48;;;;;;;14.13;4.53;;;;;;;15.62;53.68;101504.28;5137771;56;1140845;-68
2023/05/27 21:45:54;;;;;;;7.47;3.53;;;;;;;15.51;54.13;101501.64;5137189;56;1140916;-67
2023/05/27 21:50:59;;;;;;;5.67;2.97;;;;;;;15.35;54.06;101507.38;5112726;56;1138666;-68
2023/05/27 21:56:05;;;;;;;7.53;3.00;;;;;;;15.22;54.58;101505.84;5127559;56;1138734;-70
2023/05/27 22:01:13;;;;;;;10.03;4.00;;;;;;;15.09;55.05;101505.52;5127837;56;1138957;-71
2023/05/27 22:06:18;;;;;;;9.57;3.80;;;;;;;15.04;55.66;101492.19;5147523;56;1140837;-65
2023/05/27 22:11:23;;;;;;;12.27;4.77;;;;;;;14.80;56.26;101493.69;5127040;56;1138650;-65
2023/05/27 22:16:29;;;;;;;7.85;4.05;;;;;;;14.63;56.96;101487.04;5127320;56;1140876;-67
2023/05/27 22:21:35;;;;;;;13.68;4.83;;;;;;;14.45;57.93;101491.14;5147547;56;1138986;-65
2023/05/27 22:26:40;;;;;;;17.45;4.87;;;;;;;14.48;58.62;101490.06;5126511;56;1140919;-68
2023/05/27 22:31:46;;;;;;;11.37;4.80;;;;;;;14.51;59.18;101486.69;5126775;56;1140974;-67
2023/05/27 22:36:52;;;;;;;7.50;3.97;;;;;;;14.51;59.23;101485.84;5147146;56;1140738;-66
2023/05/27 22:41:57;;;;;;;17.40;4.50;;;;;;;14.36;59.62;101481.20;5121961;56;1138770;-69
2023/05/27 22:47:03;;;;;;;6.07;3.90;;;;;;;14.24;60.01;101471.48;5118815;56;1140812;-71
2023/05/27 22:52:09;;;;;;;10.67;4.43;;;;;;;14.03;60.05;101473.53;5142216;56;1138815;-69
2023/05/27 22:57:14;;;;;;;19.55;5.10;;;;;;;13.91;59.99;101485.08;5136032;56;1140911;-71
2023/05/27 23:02:20;;;;;;;9.43;4.70;;;;;;;13.87;59.83;101481.47;5137951;56;1140936;-70